aviador You're here:

OIFM Decoded Metar

ESFAHAN in IRAN
Report Time2017-09-20 16:00:00
UTC Time2017-09-20 16:26:11
Flight Rules vfr VFR
Wind060° at 08 kt
W.Decomp.*RWY 08: 7.4 kt HW 3 kt LCW
W.Rank060° ranks 19
Current wind is above 060° avg. (6.9)
Visibility9999 m
Phenomena:N/A
Clouds:N/A
Expected CloudBase > 13,200 ft AGL from Temp-Dew spread
CeilingNone
Temp23°C (ISA +18)
Dew Point-10°C (10% RH)
AAT17.0°C
QNH1020 hPa
Density Alt6,932 ft
Elevation5,059 ft
Report Wrong Elevation
Raw Report
METAR OIFM 201600Z 06008KT CAVOK 23/M10 Q1020 A3014=

Extra information for OIFM:More info

Metar Taf Metar & Taf Last 4 Metars F.Rules Stats Wind Profile Meteogram Temp Stats Airport Information Weather charts Add Link Nearby VenuesMetar ALERT Operation Metar Decoded Social comments